sensor_id;sensor_type;location;lat;lon;timestamp;temperature;humidity
33865;DHT22;20159;51.072;13.526;2023-03-23T00:01:51;15.30;65.40
33865;DHT22;20159;51.072;13.526;2023-03-23T00:04:17;15.30;65.40
33865;DHT22;20159;51.072;13.526;2023-03-23T00:06:44;15.30;65.20
33865;DHT22;20159;51.072;13.526;2023-03-23T00:09:11;15.40;65.30
33865;DHT22;20159;51.072;13.526;2023-03-23T00:11:36;15.40;65.30
33865;DHT22;20159;51.072;13.526;2023-03-23T00:14:02;15.40;65.20
33865;DHT22;20159;51.072;13.526;2023-03-23T00:16:32;15.50;65.10
33865;DHT22;20159;51.072;13.526;2023-03-23T00:19:07;15.50;65.20
33865;DHT22;20159;51.072;13.526;2023-03-23T00:21:38;15.50;64.60
33865;DHT22;20159;51.072;13.526;2023-03-23T00:24:07;15.50;64.40
33865;DHT22;20159;51.072;13.526;2023-03-23T00:26:39;15.50;64.10
33865;DHT22;20159;51.072;13.526;2023-03-23T00:29:15;15.60;64.30
33865;DHT22;20159;51.072;13.526;2023-03-23T00:31:42;15.50;63.90
33865;DHT22;20159;51.072;13.526;2023-03-23T00:34:12;15.60;64.00
33865;DHT22;20159;51.072;13.526;2023-03-23T00:36:38;15.60;63.90
33865;DHT22;20159;51.072;13.526;2023-03-23T00:39:10;15.60;63.50
33865;DHT22;20159;51.072;13.526;2023-03-23T00:41:35;15.60;63.60
33865;DHT22;20159;51.072;13.526;2023-03-23T00:44:02;15.60;63.90
33865;DHT22;20159;51.072;13.526;2023-03-23T00:46:28;15.60;63.60
33865;DHT22;20159;51.072;13.526;2023-03-23T00:48:54;15.60;63.70
33865;DHT22;20159;51.072;13.526;2023-03-23T00:51:20;15.60;63.30
33865;DHT22;20159;51.072;13.526;2023-03-23T00:53:46;15.60;63.40
33865;DHT22;20159;51.072;13.526;2023-03-23T00:56:12;15.60;63.20
33865;DHT22;20159;51.072;13.526;2023-03-23T00:58:38;15.60;63.30
33865;DHT22;20159;51.072;13.526;2023-03-23T01:01:03;15.60;63.10
33865;DHT22;20159;51.072;13.526;2023-03-23T01:03:30;15.60;63.00
33865;DHT22;20159;51.072;13.526;2023-03-23T01:05:55;15.60;63.10
33865;DHT22;20159;51.072;13.526;2023-03-23T01:08:23;15.60;62.80
33865;DHT22;20159;51.072;13.526;2023-03-23T01:10:49;15.60;62.90
33865;DHT22;20159;51.072;13.526;2023-03-23T01:13:16;15.50;62.90
33865;DHT22;20159;51.072;13.526;2023-03-23T01:15:42;15.50;62.60
33865;DHT22;20159;51.072;13.526;2023-03-23T01:18:09;15.50;62.90
33865;DHT22;20159;51.072;13.526;2023-03-23T01:20:36;15.60;62.60
33865;DHT22;20159;51.072;13.526;2023-03-23T01:23:02;15.50;62.40
33865;DHT22;20159;51.072;13.526;2023-03-23T01:25:29;15.60;62.20
33865;DHT22;20159;51.072;13.526;2023-03-23T01:27:56;15.50;62.40
33865;DHT22;20159;51.072;13.526;2023-03-23T01:30:21;15.60;62.70
33865;DHT22;20159;51.072;13.526;2023-03-23T01:32:47;15.50;62.50
33865;DHT22;20159;51.072;13.526;2023-03-23T01:35:13;15.50;62.50
33865;DHT22;20159;51.072;13.526;2023-03-23T01:37:39;15.50;62.40
33865;DHT22;20159;51.072;13.526;2023-03-23T01:40:05;15.50;63.00
33865;DHT22;20159;51.072;13.526;2023-03-23T01:42:34;15.50;62.60
33865;DHT22;20159;51.072;13.526;2023-03-23T01:45:25;15.50;62.50
33865;DHT22;20159;51.072;13.526;2023-03-23T01:48:02;15.50;62.50
33865;DHT22;20159;51.072;13.526;2023-03-23T01:50:30;15.50;62.10
33865;DHT22;20159;51.072;13.526;2023-03-23T01:52:57;15.50;62.20
33865;DHT22;20159;51.072;13.526;2023-03-23T01:55:26;15.50;62.00
33865;DHT22;20159;51.072;13.526;2023-03-23T01:57:53;15.50;62.30
33865;DHT22;20159;51.072;13.526;2023-03-23T02:00:19;15.40;62.30
33865;DHT22;20159;51.072;13.526;2023-03-23T02:02:48;15.40;61.90
33865;DHT22;20159;51.072;13.526;2023-03-23T02:05:26;15.40;62.10
33865;DHT22;20159;51.072;13.526;2023-03-23T02:07:54;15.40;61.70
33865;DHT22;20159;51.072;13.526;2023-03-23T02:10:19;15.40;61.80
33865;DHT22;20159;51.072;13.526;2023-03-23T02:12:45;15.40;61.90
33865;DHT22;20159;51.072;13.526;2023-03-23T02:15:10;15.40;61.60
33865;DHT22;20159;51.072;13.526;2023-03-23T02:21:01;15.40;61.90
33865;DHT22;20159;51.072;13.526;2023-03-23T02:23:45;15.40;61.90
33865;DHT22;20159;51.072;13.526;2023-03-23T02:26:50;14.30;61.50
33865;DHT22;20159;51.072;13.526;2023-03-23T02:29:44;15.40;61.90
33865;DHT22;20159;51.072;13.526;2023-03-23T02:32:34;15.40;62.20
33865;DHT22;20159;51.072;13.526;2023-03-23T02:35:32;15.40;61.70
33865;DHT22;20159;51.072;13.526;2023-03-23T02:38:16;15.40;61.80
33865;DHT22;20159;51.072;13.526;2023-03-23T02:40:46;15.40;61.90
33865;DHT22;20159;51.072;13.526;2023-03-23T02:43:15;15.30;61.90
33865;DHT22;20159;51.072;13.526;2023-03-23T02:45:44;15.30;61.90
33865;DHT22;20159;51.072;13.526;2023-03-23T02:48:12;15.30;61.70
33865;DHT22;20159;51.072;13.526;2023-03-23T02:50:40;15.30;61.80
33865;DHT22;20159;51.072;13.526;2023-03-23T02:53:10;15.20;61.70
33865;DHT22;20159;51.072;13.526;2023-03-23T02:55:38;15.20;62.00
33865;DHT22;20159;51.072;13.526;2023-03-23T02:58:08;15.20;61.80
33865;DHT22;20159;51.072;13.526;2023-03-23T03:00:33;15.20;61.90
33865;DHT22;20159;51.072;13.526;2023-03-23T03:02:58;15.10;62.00
33865;DHT22;20159;51.072;13.526;2023-03-23T03:05:35;15.10;62.20
33865;DHT22;20159;51.072;13.526;2023-03-23T03:08:15;15.00;62.20
33865;DHT22;20159;51.072;13.526;2023-03-23T03:10:58;15.00;62.40
33865;DHT22;20159;51.072;13.526;2023-03-23T03:13:32;15.00;62.10
33865;DHT22;20159;51.072;13.526;2023-03-23T03:16:07;14.90;62.50
33865;DHT22;20159;51.072;13.526;2023-03-23T03:19:01;14.90;63.00
33865;DHT22;20159;51.072;13.526;2023-03-23T03:21:30;14.80;62.80
33865;DHT22;20159;51.072;13.526;2023-03-23T03:23:58;14.80;63.00
33865;DHT22;20159;51.072;13.526;2023-03-23T03:26:26;14.70;63.00
33865;DHT22;20159;51.072;13.526;2023-03-23T03:28:53;14.70;63.10
33865;DHT22;20159;51.072;13.526;2023-03-23T03:31:23;14.70;63.20
33865;DHT22;20159;51.072;13.526;2023-03-23T03:33:51;14.70;63.50
33865;DHT22;20159;51.072;13.526;2023-03-23T03:36:20;14.70;63.70
33865;DHT22;20159;51.072;13.526;2023-03-23T03:38:50;14.60;63.70
33865;DHT22;20159;51.072;13.526;2023-03-23T03:41:15;14.70;63.70
33865;DHT22;20159;51.072;13.526;2023-03-23T03:43:41;14.70;64.00
33865;DHT22;20159;51.072;13.526;2023-03-23T03:46:07;14.80;64.10
33865;DHT22;20159;51.072;13.526;2023-03-23T03:48:33;14.80;63.90
33865;DHT22;20159;51.072;13.526;2023-03-23T03:50:59;14.90;64.10
33865;DHT22;20159;51.072;13.526;2023-03-23T03:53:26;14.90;64.10
33865;DHT22;20159;51.072;13.526;2023-03-23T03:55:51;15.10;64.10
33865;DHT22;20159;51.072;13.526;2023-03-23T03:58:23;15.10;64.00
33865;DHT22;20159;51.072;13.526;2023-03-23T04:00:50;15.10;63.90
33865;DHT22;20159;51.072;13.526;2023-03-23T04:03:16;15.20;63.80
33865;DHT22;20159;51.072;13.526;2023-03-23T04:05:42;15.20;63.80
33865;DHT22;20159;51.072;13.526;2023-03-23T04:08:10;15.30;64.00
33865;DHT22;20159;51.072;13.526;2023-03-23T04:10:36;15.30;63.90
33865;DHT22;20159;51.072;13.526;2023-03-23T04:13:02;15.40;63.80
33865;DHT22;20159;51.072;13.526;2023-03-23T04:15:30;15.40;63.80
33865;DHT22;20159;51.072;13.526;2023-03-23T04:17:55;15.40;63.80
33865;DHT22;20159;51.072;13.526;2023-03-23T04:20:22;15.50;64.10
33865;DHT22;20159;51.072;13.526;2023-03-23T04:22:48;15.50;64.20
33865;DHT22;20159;51.072;13.526;2023-03-23T04:25:16;15.50;63.90
33865;DHT22;20159;51.072;13.526;2023-03-23T04:27:42;15.50;63.90
33865;DHT22;20159;51.072;13.526;2023-03-23T04:30:10;15.50;64.10
33865;DHT22;20159;51.072;13.526;2023-03-23T04:32:36;15.50;63.90
33865;DHT22;20159;51.072;13.526;2023-03-23T04:35:06;15.60;63.90
33865;DHT22;20159;51.072;13.526;2023-03-23T04:37:32;15.60;64.00
33865;DHT22;20159;51.072;13.526;2023-03-23T04:39:59;15.60;64.00
33865;DHT22;20159;51.072;13.526;2023-03-23T04:42:31;15.60;63.80
33865;DHT22;20159;51.072;13.526;2023-03-23T04:44:58;15.70;63.70
33865;DHT22;20159;51.072;13.526;2023-03-23T04:47:24;15.70;63.70
33865;DHT22;20159;51.072;13.526;2023-03-23T04:49:51;15.70;63.60
33865;DHT22;20159;51.072;13.526;2023-03-23T04:52:17;15.80;63.80
33865;DHT22;20159;51.072;13.526;2023-03-23T04:54:43;15.80;63.80
33865;DHT22;20159;51.072;13.526;2023-03-23T04:57:08;15.80;63.90
33865;DHT22;20159;51.072;13.526;2023-03-23T04:59:34;15.80;63.80
33865;DHT22;20159;51.072;13.526;2023-03-23T05:01:59;15.80;63.60
33865;DHT22;20159;51.072;13.526;2023-03-23T05:04:25;15.90;63.80
33865;DHT22;20159;51.072;13.526;2023-03-23T05:06:51;15.90;63.50
33865;DHT22;20159;51.072;13.526;2023-03-23T05:09:17;15.90;63.60
33865;DHT22;20159;51.072;13.526;2023-03-23T05:11:43;15.90;63.30
33865;DHT22;20159;51.072;13.526;2023-03-23T05:14:08;15.90;63.20
33865;DHT22;20159;51.072;13.526;2023-03-23T05:16:35;15.90;63.30
33865;DHT22;20159;51.072;13.526;2023-03-23T05:19:03;15.90;63.30
33865;DHT22;20159;51.072;13.526;2023-03-23T05:21:30;15.80;63.20
33865;DHT22;20159;51.072;13.526;2023-03-23T05:23:55;15.90;62.80
33865;DHT22;20159;51.072;13.526;2023-03-23T05:26:22;15.90;63.10
33865;DHT22;20159;51.072;13.526;2023-03-23T05:28:49;15.90;62.90
33865;DHT22;20159;51.072;13.526;2023-03-23T05:31:18;15.90;62.60
33865;DHT22;20159;51.072;13.526;2023-03-23T05:33:43;15.90;62.80
33865;DHT22;20159;51.072;13.526;2023-03-23T05:36:09;16.00;62.90
33865;DHT22;20159;51.072;13.526;2023-03-23T05:38:36;16.00;62.80
33865;DHT22;20159;51.072;13.526;2023-03-23T05:41:04;16.00;62.70
33865;DHT22;20159;51.072;13.526;2023-03-23T05:43:29;16.00;62.50
33865;DHT22;20159;51.072;13.526;2023-03-23T05:45:55;16.00;62.20
33865;DHT22;20159;51.072;13.526;2023-03-23T05:48:20;16.00;61.90
33865;DHT22;20159;51.072;13.526;2023-03-23T05:50:47;16.10;62.10
33865;DHT22;20159;51.072;13.526;2023-03-23T05:53:12;16.10;61.90
33865;DHT22;20159;51.072;13.526;2023-03-23T05:55:38;16.20;62.30
33865;DHT22;20159;51.072;13.526;2023-03-23T05:58:03;16.20;61.80
33865;DHT22;20159;51.072;13.526;2023-03-23T06:00:29;16.20;61.80
33865;DHT22;20159;51.072;13.526;2023-03-23T06:02:56;16.30;61.70
33865;DHT22;20159;51.072;13.526;2023-03-23T06:05:22;16.40;61.60
33865;DHT22;20159;51.072;13.526;2023-03-23T06:07:49;16.40;61.30
33865;DHT22;20159;51.072;13.526;2023-03-23T06:10:14;16.40;60.80
33865;DHT22;20159;51.072;13.526;2023-03-23T06:12:40;16.50;61.00
33865;DHT22;20159;51.072;13.526;2023-03-23T06:15:07;16.50;60.90
33865;DHT22;20159;51.072;13.526;2023-03-23T06:17:33;16.50;60.90
33865;DHT22;20159;51.072;13.526;2023-03-23T06:19:59;16.60;60.60
33865;DHT22;20159;51.072;13.526;2023-03-23T06:22:25;16.70;60.70
33865;DHT22;20159;51.072;13.526;2023-03-23T06:24:51;16.70;60.70
33865;DHT22;20159;51.072;13.526;2023-03-23T06:27:17;16.70;60.50
33865;DHT22;20159;51.072;13.526;2023-03-23T06:29:43;16.80;60.70
33865;DHT22;20159;51.072;13.526;2023-03-23T06:32:12;16.80;60.70
33865;DHT22;20159;51.072;13.526;2023-03-23T06:34:38;16.80;60.70
33865;DHT22;20159;51.072;13.526;2023-03-23T06:37:06;16.80;60.60
33865;DHT22;20159;51.072;13.526;2023-03-23T06:39:31;16.90;60.70
33865;DHT22;20159;51.072;13.526;2023-03-23T06:41:57;16.90;60.40
33865;DHT22;20159;51.072;13.526;2023-03-23T06:44:24;16.90;60.70
33865;DHT22;20159;51.072;13.526;2023-03-23T06:46:50;16.90;60.40
33865;DHT22;20159;51.072;13.526;2023-03-23T06:49:15;17.00;60.40
33865;DHT22;20159;51.072;13.526;2023-03-23T06:51:41;17.00;60.50
33865;DHT22;20159;51.072;13.526;2023-03-23T06:54:07;17.00;60.50
33865;DHT22;20159;51.072;13.526;2023-03-23T06:56:32;17.10;60.30
33865;DHT22;20159;51.072;13.526;2023-03-23T06:58:58;17.10;60.40
33865;DHT22;20159;51.072;13.526;2023-03-23T07:01:24;17.10;60.40
33865;DHT22;20159;51.072;13.526;2023-03-23T07:03:49;17.20;60.60
33865;DHT22;20159;51.072;13.526;2023-03-23T07:06:15;17.30;60.50
33865;DHT22;20159;51.072;13.526;2023-03-23T07:08:41;17.30;60.50
33865;DHT22;20159;51.072;13.526;2023-03-23T07:11:07;17.30;60.30
33865;DHT22;20159;51.072;13.526;2023-03-23T07:13:33;17.40;60.40
33865;DHT22;20159;51.072;13.526;2023-03-23T07:15:59;17.50;60.60
33865;DHT22;20159;51.072;13.526;2023-03-23T07:18:24;17.60;60.30
33865;DHT22;20159;51.072;13.526;2023-03-23T07:20:51;17.70;60.90
33865;DHT22;20159;51.072;13.526;2023-03-23T07:23:17;17.80;60.30
33865;DHT22;20159;51.072;13.526;2023-03-23T07:25:44;17.90;60.10
33865;DHT22;20159;51.072;13.526;2023-03-23T07:28:11;18.00;59.90
33865;DHT22;20159;51.072;13.526;2023-03-23T07:30:38;18.10;59.70
33865;DHT22;20159;51.072;13.526;2023-03-23T07:33:04;18.20;59.30
33865;DHT22;20159;51.072;13.526;2023-03-23T07:35:32;18.20;59.40
33865;DHT22;20159;51.072;13.526;2023-03-23T07:37:58;18.30;59.10
33865;DHT22;20159;51.072;13.526;2023-03-23T07:40:24;18.40;59.30
33865;DHT22;20159;51.072;13.526;2023-03-23T07:42:56;18.40;59.50
33865;DHT22;20159;51.072;13.526;2023-03-23T07:45:22;18.50;59.40
33865;DHT22;20159;51.072;13.526;2023-03-23T07:47:48;18.50;59.40
33865;DHT22;20159;51.072;13.526;2023-03-23T07:50:14;18.60;59.50
33865;DHT22;20159;51.072;13.526;2023-03-23T07:52:39;18.60;59.30
33865;DHT22;20159;51.072;13.526;2023-03-23T07:55:08;18.70;58.80
33865;DHT22;20159;51.072;13.526;2023-03-23T07:57:34;18.70;59.10
33865;DHT22;20159;51.072;13.526;2023-03-23T08:00:00;18.80;59.20
33865;DHT22;20159;51.072;13.526;2023-03-23T08:02:25;18.90;59.20
33865;DHT22;20159;51.072;13.526;2023-03-23T08:04:52;18.90;58.70
33865;DHT22;20159;51.072;13.526;2023-03-23T08:07:19;19.00;58.00
33865;DHT22;20159;51.072;13.526;2023-03-23T08:09:46;19.00;57.90
33865;DHT22;20159;51.072;13.526;2023-03-23T08:12:12;19.00;57.10
33865;DHT22;20159;51.072;13.526;2023-03-23T08:14:38;19.10;57.50
33865;DHT22;20159;51.072;13.526;2023-03-23T08:17:05;19.00;57.20
33865;DHT22;20159;51.072;13.526;2023-03-23T08:19:30;19.00;57.30
33865;DHT22;20159;51.072;13.526;2023-03-23T08:22:02;19.00;57.50
33865;DHT22;20159;51.072;13.526;2023-03-23T08:24:27;18.90;57.70
33865;DHT22;20159;51.072;13.526;2023-03-23T08:26:53;19.00;58.00
33865;DHT22;20159;51.072;13.526;2023-03-23T08:29:18;18.90;58.20
33865;DHT22;20159;51.072;13.526;2023-03-23T08:31:44;18.90;58.30
33865;DHT22;20159;51.072;13.526;2023-03-23T08:34:10;18.90;58.10
33865;DHT22;20159;51.072;13.526;2023-03-23T08:36:35;18.90;58.60
33865;DHT22;20159;51.072;13.526;2023-03-23T08:39:03;18.90;58.70
33865;DHT22;20159;51.072;13.526;2023-03-23T08:48:21;18.80;60.20
33865;DHT22;20159;51.072;13.526;2023-03-23T08:50:50;18.70;60.20
33865;DHT22;20159;51.072;13.526;2023-03-23T08:53:17;18.60;60.40
33865;DHT22;20159;51.072;13.526;2023-03-23T08:56:12;18.60;60.90
33865;DHT22;20159;51.072;13.526;2023-03-23T08:58:38;18.50;61.00
33865;DHT22;20159;51.072;13.526;2023-03-23T09:01:08;18.40;61.20
33865;DHT22;20159;51.072;13.526;2023-03-23T09:03:36;18.40;61.10
33865;DHT22;20159;51.072;13.526;2023-03-23T09:06:04;18.30;61.60
33865;DHT22;20159;51.072;13.526;2023-03-23T09:08:30;18.30;62.10
33865;DHT22;20159;51.072;13.526;2023-03-23T09:11:00;18.30;62.20
33865;DHT22;20159;51.072;13.526;2023-03-23T09:13:26;18.30;62.60
33865;DHT22;20159;51.072;13.526;2023-03-23T09:15:51;18.30;63.00
33865;DHT22;20159;51.072;13.526;2023-03-23T09:18:18;18.20;63.80
33865;DHT22;20159;51.072;13.526;2023-03-23T09:20:44;18.20;64.10
33865;DHT22;20159;51.072;13.526;2023-03-23T09:23:10;18.10;64.30
33865;DHT22;20159;51.072;13.526;2023-03-23T09:25:35;18.00;65.30
33865;DHT22;20159;51.072;13.526;2023-03-23T09:28:01;17.90;65.00
33865;DHT22;20159;51.072;13.526;2023-03-23T09:30:29;17.80;65.80
33865;DHT22;20159;51.072;13.526;2023-03-23T09:32:56;17.80;67.20
33865;DHT22;20159;51.072;13.526;2023-03-23T09:35:23;17.70;68.00
33865;DHT22;20159;51.072;13.526;2023-03-23T09:37:51;17.60;68.30
33865;DHT22;20159;51.072;13.526;2023-03-23T09:43:06;17.40;68.20
33865;DHT22;20159;51.072;13.526;2023-03-23T09:50:56;17.20;70.70
33865;DHT22;20159;51.072;13.526;2023-03-23T09:53:28;17.20;70.90
33865;DHT22;20159;51.072;13.526;2023-03-23T09:56:00;17.20;72.00
33865;DHT22;20159;51.072;13.526;2023-03-23T09:58:44;17.30;71.60
33865;DHT22;20159;51.072;13.526;2023-03-23T10:03:55;17.40;72.60
33865;DHT22;20159;51.072;13.526;2023-03-23T10:06:23;17.50;72.30
33865;DHT22;20159;51.072;13.526;2023-03-23T10:08:57;17.60;72.80
33865;DHT22;20159;51.072;13.526;2023-03-23T10:11:43;17.80;72.50
33865;DHT22;20159;51.072;13.526;2023-03-23T10:14:19;17.90;72.90
33865;DHT22;20159;51.072;13.526;2023-03-23T10:17:13;18.10;71.50
33865;DHT22;20159;51.072;13.526;2023-03-23T10:22:36;18.30;70.40
33865;DHT22;20159;51.072;13.526;2023-03-23T10:28:03;18.50;70.00
33865;DHT22;20159;51.072;13.526;2023-03-23T10:30:37;18.70;69.70
33865;DHT22;20159;51.072;13.526;2023-03-23T10:35:57;18.70;68.40
33865;DHT22;20159;51.072;13.526;2023-03-23T10:38:32;18.80;68.10
33865;DHT22;20159;51.072;13.526;2023-03-23T10:41:04;18.80;68.20
33865;DHT22;20159;51.072;13.526;2023-03-23T10:44:04;18.80;67.50
33865;DHT22;20159;51.072;13.526;2023-03-23T10:46:51;18.80;68.60
33865;DHT22;20159;51.072;13.526;2023-03-23T10:49:33;18.90;68.50
33865;DHT22;20159;51.072;13.526;2023-03-23T10:55:17;19.00;67.40
33865;DHT22;20159;51.072;13.526;2023-03-23T10:57:45;19.00;67.50
33865;DHT22;20159;51.072;13.526;2023-03-23T11:00:28;19.00;67.50
33865;DHT22;20159;51.072;13.526;2023-03-23T11:02:59;19.10;67.30
33865;DHT22;20159;51.072;13.526;2023-03-23T11:05:31;19.10;66.70
33865;DHT22;20159;51.072;13.526;2023-03-23T11:08:02;19.10;65.90
33865;DHT22;20159;51.072;13.526;2023-03-23T11:10:38;19.10;66.00
33865;DHT22;20159;51.072;13.526;2023-03-23T11:13:03;19.10;65.50
33865;DHT22;20159;51.072;13.526;2023-03-23T11:16:02;19.10;65.60
33865;DHT22;20159;51.072;13.526;2023-03-23T11:18:42;19.10;66.10
33865;DHT22;20159;51.072;13.526;2023-03-23T11:21:10;19.10;65.80
33865;DHT22;20159;51.072;13.526;2023-03-23T11:23:39;19.10;65.40
33865;DHT22;20159;51.072;13.526;2023-03-23T11:26:23;19.00;65.50
33865;DHT22;20159;51.072;13.526;2023-03-23T11:32:10;19.00;64.80
33865;DHT22;20159;51.072;13.526;2023-03-23T11:34:48;18.90;65.90
33865;DHT22;20159;51.072;13.526;2023-03-23T11:37:29;18.90;65.70
33865;DHT22;20159;51.072;13.526;2023-03-23T11:42:45;18.70;66.50
33865;DHT22;20159;51.072;13.526;2023-03-23T11:45:31;18.70;67.80
33865;DHT22;20159;51.072;13.526;2023-03-23T11:48:10;18.60;68.80
33865;DHT22;20159;51.072;13.526;2023-03-23T11:50:59;18.50;69.40
33865;DHT22;20159;51.072;13.526;2023-03-23T11:58:50;18.20;70.80
33865;DHT22;20159;51.072;13.526;2023-03-23T12:01:38;18.10;69.80
33865;DHT22;20159;51.072;13.526;2023-03-23T12:04:30;17.90;70.20
33865;DHT22;20159;51.072;13.526;2023-03-23T12:07:08;17.90;71.50
33865;DHT22;20159;51.072;13.526;2023-03-23T12:20:43;17.70;73.30
33865;DHT22;20159;51.072;13.526;2023-03-23T12:23:41;17.80;72.80
33865;DHT22;20159;51.072;13.526;2023-03-23T12:29:08;18.00;72.30
33865;DHT22;20159;51.072;13.526;2023-03-23T12:34:50;18.20;71.90
33865;DHT22;20159;51.072;13.526;2023-03-23T12:42:54;18.50;71.20
33865;DHT22;20159;51.072;13.526;2023-03-23T12:48:41;18.60;70.50
33865;DHT22;20159;51.072;13.526;2023-03-23T12:51:19;18.60;69.60
33865;DHT22;20159;51.072;13.526;2023-03-23T12:57:15;18.80;69.20
33865;DHT22;20159;51.072;13.526;2023-03-23T13:07:57;19.10;70.30
33865;DHT22;20159;51.072;13.526;2023-03-23T13:10:39;19.30;69.40
33865;DHT22;20159;51.072;13.526;2023-03-23T13:13:23;19.50;69.50
33865;DHT22;20159;51.072;13.526;2023-03-23T13:19:15;19.80;67.30
33865;DHT22;20159;51.072;13.526;2023-03-23T13:22:07;20.00;65.70
33865;DHT22;20159;51.072;13.526;2023-03-23T13:24:37;20.10;66.30
33865;DHT22;20159;51.072;13.526;2023-03-23T13:27:04;20.20;65.10
33865;DHT22;20159;51.072;13.526;2023-03-23T13:29:32;20.30;63.80
33865;DHT22;20159;51.072;13.526;2023-03-23T13:32:16;20.30;62.40
33865;DHT22;20159;51.072;13.526;2023-03-23T13:34:42;20.30;62.30
33865;DHT22;20159;51.072;13.526;2023-03-23T13:37:22;20.30;63.20
33865;DHT22;20159;51.072;13.526;2023-03-23T13:39:51;20.30;61.90
33865;DHT22;20159;51.072;13.526;2023-03-23T13:42:21;20.20;61.80
33865;DHT22;20159;51.072;13.526;2023-03-23T13:47:26;20.20;62.50
33865;DHT22;20159;51.072;13.526;2023-03-23T13:49:58;20.20;61.80
33865;DHT22;20159;51.072;13.526;2023-03-23T13:55:20;20.30;62.40
33865;DHT22;20159;51.072;13.526;2023-03-23T13:57:55;20.40;61.80
33865;DHT22;20159;51.072;13.526;2023-03-23T14:03:24;20.60;61.40
33865;DHT22;20159;51.072;13.526;2023-03-23T14:08:38;21.00;60.60
33865;DHT22;20159;51.072;13.526;2023-03-23T14:11:26;21.10;59.90
33865;DHT22;20159;51.072;13.526;2023-03-23T14:14:03;21.30;59.60
33865;DHT22;20159;51.072;13.526;2023-03-23T14:19:00;21.50;59.60
33865;DHT22;20159;51.072;13.526;2023-03-23T14:21:35;21.50;59.50
33865;DHT22;20159;51.072;13.526;2023-03-23T14:24:10;21.60;59.60
33865;DHT22;20159;51.072;13.526;2023-03-23T14:26:37;21.70;59.10
33865;DHT22;20159;51.072;13.526;2023-03-23T14:29:04;21.80;58.10
33865;DHT22;20159;51.072;13.526;2023-03-23T14:31:31;21.90;57.70
33865;DHT22;20159;51.072;13.526;2023-03-23T14:34:02;21.90;57.20
33865;DHT22;20159;51.072;13.526;2023-03-23T14:36:30;21.90;56.90
33865;DHT22;20159;51.072;13.526;2023-03-23T14:41:23;21.70;56.70
33865;DHT22;20159;51.072;13.526;2023-03-23T14:43:50;21.60;57.00
33865;DHT22;20159;51.072;13.526;2023-03-23T14:46:16;21.40;57.30
33865;DHT22;20159;51.072;13.526;2023-03-23T14:48:41;21.30;57.60
33865;DHT22;20159;51.072;13.526;2023-03-23T14:51:18;21.20;57.80
33865;DHT22;20159;51.072;13.526;2023-03-23T14:53:43;21.10;57.50
33865;DHT22;20159;51.072;13.526;2023-03-23T14:56:19;21.00;57.80
33865;DHT22;20159;51.072;13.526;2023-03-23T14:58:49;20.90;57.90
33865;DHT22;20159;51.072;13.526;2023-03-23T15:01:28;20.70;57.90
33865;DHT22;20159;51.072;13.526;2023-03-23T15:04:03;20.60;58.30
33865;DHT22;20159;51.072;13.526;2023-03-23T15:06:31;20.50;58.60
33865;DHT22;20159;51.072;13.526;2023-03-23T15:09:05;20.40;58.80
33865;DHT22;20159;51.072;13.526;2023-03-23T15:11:34;20.20;59.20
33865;DHT22;20159;51.072;13.526;2023-03-23T15:14:19;20.10;59.40
33865;DHT22;20159;51.072;13.526;2023-03-23T15:16:53;20.10;59.30
33865;DHT22;20159;51.072;13.526;2023-03-23T15:19:23;19.90;59.70
33865;DHT22;20159;51.072;13.526;2023-03-23T15:21:54;19.90;59.90
33865;DHT22;20159;51.072;13.526;2023-03-23T15:24:39;19.80;60.10
33865;DHT22;20159;51.072;13.526;2023-03-23T15:27:17;19.70;60.30
33865;DHT22;20159;51.072;13.526;2023-03-23T15:32:50;19.40;60.70
33865;DHT22;20159;51.072;13.526;2023-03-23T15:35:24;19.30;60.70
33865;DHT22;20159;51.072;13.526;2023-03-23T15:38:21;19.30;61.30
33865;DHT22;20159;51.072;13.526;2023-03-23T15:41:21;19.10;61.60
33865;DHT22;20159;51.072;13.526;2023-03-23T15:46:49;18.90;61.80
33865;DHT22;20159;51.072;13.526;2023-03-23T15:49:18;18.90;61.90
33865;DHT22;20159;51.072;13.526;2023-03-23T15:52:11;18.80;61.80
33865;DHT22;20159;51.072;13.526;2023-03-23T15:54:37;18.70;61.90
33865;DHT22;20159;51.072;13.526;2023-03-23T15:57:03;18.60;62.30
33865;DHT22;20159;51.072;13.526;2023-03-23T15:59:28;18.60;61.80
33865;DHT22;20159;51.072;13.526;2023-03-23T16:01:54;18.60;62.30
33865;DHT22;20159;51.072;13.526;2023-03-23T16:04:20;18.50;62.20
33865;DHT22;20159;51.072;13.526;2023-03-23T16:06:46;18.40;62.20
33865;DHT22;20159;51.072;13.526;2023-03-23T16:09:17;18.40;62.20
33865;DHT22;20159;51.072;13.526;2023-03-23T16:11:43;18.30;62.20
33865;DHT22;20159;51.072;13.526;2023-03-23T16:14:09;18.30;62.50
33865;DHT22;20159;51.072;13.526;2023-03-23T16:16:43;18.20;62.80
33865;DHT22;20159;51.072;13.526;2023-03-23T16:19:13;18.20;62.80
33865;DHT22;20159;51.072;13.526;2023-03-23T16:21:40;18.10;63.00
33865;DHT22;20159;51.072;13.526;2023-03-23T16:24:06;18.10;63.10
33865;DHT22;20159;51.072;13.526;2023-03-23T16:26:32;18.10;63.00
33865;DHT22;20159;51.072;13.526;2023-03-23T16:28:58;18.00;63.10
33865;DHT22;20159;51.072;13.526;2023-03-23T16:31:24;18.00;63.20
33865;DHT22;20159;51.072;13.526;2023-03-23T16:33:49;18.00;63.40
33865;DHT22;20159;51.072;13.526;2023-03-23T16:36:15;17.90;63.50
33865;DHT22;20159;51.072;13.526;2023-03-23T16:38:41;17.90;63.40
33865;DHT22;20159;51.072;13.526;2023-03-23T16:41:06;17.80;63.30
33865;DHT22;20159;51.072;13.526;2023-03-23T16:43:33;17.80;63.50
33865;DHT22;20159;51.072;13.526;2023-03-23T16:45:58;17.80;63.70
33865;DHT22;20159;51.072;13.526;2023-03-23T16:48:24;17.70;63.60
33865;DHT22;20159;51.072;13.526;2023-03-23T16:50:51;17.70;63.80
33865;DHT22;20159;51.072;13.526;2023-03-23T16:53:17;17.60;63.90
33865;DHT22;20159;51.072;13.526;2023-03-23T16:55:43;17.60;64.30
33865;DHT22;20159;51.072;13.526;2023-03-23T16:58:12;17.60;64.70
33865;DHT22;20159;51.072;13.526;2023-03-23T17:00:38;17.50;65.00
33865;DHT22;20159;51.072;13.526;2023-03-23T17:03:05;17.50;65.40
33865;DHT22;20159;51.072;13.526;2023-03-23T17:05:31;17.40;65.60
33865;DHT22;20159;51.072;13.526;2023-03-23T17:07:57;17.40;65.80
33865;DHT22;20159;51.072;13.526;2023-03-23T17:10:25;17.40;66.10
33865;DHT22;20159;51.072;13.526;2023-03-23T17:12:52;17.30;66.40
33865;DHT22;20159;51.072;13.526;2023-03-23T17:15:18;17.20;66.60
33865;DHT22;20159;51.072;13.526;2023-03-23T17:17:43;17.10;66.90
33865;DHT22;20159;51.072;13.526;2023-03-23T17:20:09;17.10;67.10